Time;durP1;ratioP1;P1;durP2;ratioP2;P2;SDS_P1;SDS_P2;PMS_P1;PMS_P2;Temp;Humidity;BMP_temperature;BMP_pressure;BME280_temperature;BME280_humidity;BME280_pressure;Samples;Min_cycle;Max_cycle;Signal;HPM_P1;HPM_P2
2023/10/08 00:01:43;;;;;;;9.45;3.00;;;19.10;99.90;;;;;;5168556;27;20125;-43
2023/10/08 00:04:18;;;;;;;7.97;3.17;;;19.10;99.90;;;;;;5102199;27;20053;-44
2023/10/08 00:06:45;;;;;;;9.00;3.13;;;19.10;99.90;;;;;;5169909;27;20078;-44
2023/10/08 00:09:11;;;;;;;8.10;3.15;;;19.10;99.90;;;;;;5101945;27;20074;-43
2023/10/08 00:11:37;;;;;;;9.90;3.72;;;19.10;99.90;;;;;;5168255;27;20431;-43
2023/10/08 00:14:08;;;;;;;7.70;3.65;;;19.00;99.90;;;;;;5102220;27;20035;-43
2023/10/08 00:16:34;;;;;;;7.85;3.22;;;19.00;99.90;;;;;;5168820;27;20086;-44
2023/10/08 00:19:14;;;;;;;11.85;3.97;;;19.00;99.90;;;;;;5109073;27;20045;-43
2023/10/08 00:21:45;;;;;;;6.35;3.05;;;19.00;99.90;;;;;;5043210;28;20657;-43
2023/10/08 00:24:12;;;;;;;7.18;3.17;;;19.00;99.90;;;;;;5115792;27;20069;-43
2023/10/08 00:26:40;;;;;;;6.35;3.05;;;19.00;99.90;;;;;;5069042;27;20031;-43
2023/10/08 00:29:15;;;;;;;7.88;2.83;;;19.00;99.90;;;;;;5109401;27;20029;-43
2023/10/08 00:31:45;;;;;;;6.70;3.33;;;19.00;99.90;;;;;;5074354;27;20032;-43
2023/10/08 00:34:20;;;;;;;8.18;3.25;;;19.00;99.90;;;;;;5104965;27;20038;-44
2023/10/08 00:36:49;;;;;;;7.78;3.35;;;18.90;99.90;;;;;;5079214;27;20105;-43
2023/10/08 00:39:22;;;;;;;9.02;3.75;;;18.90;99.90;;;;;;5101001;27;20090;-43
2023/10/08 00:41:50;;;;;;;9.75;3.30;;;19.00;99.90;;;;;;5074576;27;20069;-43
2023/10/08 00:44:22;;;;;;;9.93;3.60;;;18.90;99.90;;;;;;5094324;27;20042;-43
2023/10/08 00:46:50;;;;;;;11.68;3.38;;;18.90;99.90;;;;;;5091937;27;20025;-45
2023/10/08 00:57:25;;;;;;;8.30;3.05;;;18.80;99.90;;;;;;5081543;27;20040;-43
2023/10/08 00:59:55;;;;;;;9.77;3.40;;;18.80;99.90;;;;;;5099140;27;20777;-43
2023/10/08 01:02:26;;;;;;;6.13;2.88;;;18.80;99.90;;;;;;5089530;27;20024;-44
2023/10/08 01:04:54;;;;;;;7.60;3.03;;;18.80;99.90;;;;;;5090440;27;20018;-43
2023/10/08 01:07:20;;;;;;;7.18;3.17;;;18.80;99.90;;;;;;5098930;27;20406;-43
2023/10/08 01:09:59;;;;;;;9.57;3.40;;;18.80;99.90;;;;;;5078518;27;20028;-43
2023/10/08 01:12:33;;;;;;;7.55;3.00;;;18.80;99.90;;;;;;5088300;27;20120;-44
2023/10/08 01:18:04;;;;;;;6.15;2.50;;;18.80;99.90;;;;;;5102388;28;20893;-44
2023/10/08 01:23:13;;;;;;;7.33;2.97;;;18.80;99.90;;;;;;5089916;27;20060;-43
2023/10/08 01:25:43;;;;;;;7.20;3.10;;;18.80;99.90;;;;;;5094589;27;20544;-43
2023/10/08 01:28:25;;;;;;;6.05;2.67;;;18.80;99.90;;;;;;5092796;27;20020;-43
2023/10/08 01:30:54;;;;;;;5.28;2.63;;;18.80;99.90;;;;;;5095361;27;20018;-43
2023/10/08 01:33:21;;;;;;;6.72;3.15;;;18.80;99.90;;;;;;5091979;27;20543;-44
2023/10/08 01:35:48;;;;;;;6.38;2.97;;;18.80;99.90;;;;;;5084417;27;20117;-42
2023/10/08 01:38:16;;;;;;;5.25;2.45;;;18.80;99.90;;;;;;5103568;27;20494;-42
2023/10/08 01:40:42;;;;;;;5.47;2.50;;;18.70;99.90;;;;;;5091772;27;20026;-43
2023/10/08 01:43:08;;;;;;;6.68;2.70;;;18.80;99.90;;;;;;5111661;27;20026;-44
2023/10/08 01:45:43;;;;;;;6.45;2.67;;;18.80;99.90;;;;;;5160245;27;20028;-44
2023/10/08 01:48:12;;;;;;;5.80;2.83;;;18.80;99.90;;;;;;5107868;27;20089;-43
2023/10/08 01:50:38;;;;;;;7.50;3.05;;;18.80;99.90;;;;;;5159598;27;20038;-42
2023/10/08 01:53:09;;;;;;;6.78;2.50;;;18.80;99.90;;;;;;5107179;27;20050;-43
2023/10/08 01:55:48;;;;;;;7.33;3.00;;;18.80;99.90;;;;;;5163593;27;20019;-44
2023/10/08 01:58:16;;;;;;;9.20;3.10;;;18.80;99.90;;;;;;5117321;27;20318;-44
2023/10/08 02:00:49;;;;;;;7.13;2.78;;;18.70;99.90;;;;;;5062213;27;20417;-42
2023/10/08 02:03:17;;;;;;;11.32;3.45;;;18.70;99.90;;;;;;5120434;27;20017;-42
2023/10/08 02:05:43;;;;;;;7.68;3.20;;;18.70;99.90;;;;;;5060815;27;20021;-43
2023/10/08 02:08:11;;;;;;;6.93;2.75;;;18.70;99.90;;;;;;5127391;27;20023;-43
2023/10/08 02:10:38;;;;;;;7.07;2.92;;;18.70;99.90;;;;;;5062252;28;20021;-43
2023/10/08 02:13:05;;;;;;;5.97;2.83;;;18.70;99.90;;;;;;5127168;27;20026;-44
2023/10/08 02:15:30;;;;;;;8.38;3.08;;;18.70;99.90;;;;;;5061549;28;20059;-43
2023/10/08 02:17:58;;;;;;;6.55;3.10;;;18.70;99.90;;;;;;5116703;27;20469;-42
2023/10/08 02:20:23;;;;;;;6.93;3.10;;;18.70;99.90;;;;;;5068577;27;20040;-43
2023/10/08 02:22:49;;;;;;;7.30;3.42;;;18.70;99.90;;;;;;5105190;27;20500;-43
2023/10/08 02:25:15;;;;;;;8.48;3.20;;;18.70;99.90;;;;;;5081655;27;20029;-44
2023/10/08 02:27:41;;;;;;;12.23;3.72;;;18.70;99.90;;;;;;5091846;27;20010;-42
2023/10/08 02:30:09;;;;;;;6.63;2.92;;;18.70;99.90;;;;;;5095885;27;20369;-43
2023/10/08 02:32:36;;;;;;;7.30;3.22;;;18.70;99.90;;;;;;5079526;27;20029;-44
2023/10/08 02:35:04;;;;;;;7.93;3.05;;;18.70;99.90;;;;;;5106610;27;20080;-43
2023/10/08 02:37:30;;;;;;;4.85;2.92;;;18.70;99.90;;;;;;5068696;27;20016;-42
2023/10/08 02:39:57;;;;;;;8.18;2.88;;;18.70;99.90;;;;;;5123688;27;20455;-43
2023/10/08 02:42:24;;;;;;;4.85;2.65;;;18.70;99.90;;;;;;5158655;27;20142;-44
2023/10/08 02:44:53;;;;;;;6.68;2.85;;;18.70;99.90;;;;;;5110698;27;20032;-44
2023/10/08 02:47:20;;;;;;;8.23;3.13;;;18.70;99.90;;;;;;5168451;27;20068;-42
2023/10/08 02:49:49;;;;;;;8.82;3.38;;;18.70;99.90;;;;;;5112619;27;20018;-42
2023/10/08 02:52:15;;;;;;;7.10;3.15;;;18.70;99.90;;;;;;5172806;27;20022;-43
2023/10/08 02:54:41;;;;;;;8.98;3.40;;;18.70;99.90;;;;;;5105577;27;20031;-43
2023/10/08 02:57:14;;;;;;;8.50;3.20;;;18.70;99.90;;;;;;5172769;27;20022;-42
2023/10/08 02:59:40;;;;;;;;;;;18.60;99.90;;;;;;5106735;27;20486;-42
2023/10/08 03:02:14;;;;;;;4.57;2.83;;;18.60;99.90;;;;;;5172852;27;20325;-43
2023/10/08 03:04:45;;;;;;;6.45;3.08;;;18.60;99.90;;;;;;5108730;27;20035;-43
2023/10/08 03:07:20;;;;;;;6.70;3.15;;;18.60;99.90;;;;;;5046791;28;20035;-43
2023/10/08 03:09:49;;;;;;;10.38;4.75;;;18.60;99.90;;;;;;5125191;27;20026;-43
2023/10/08 03:12:16;;;;;;;10.32;4.47;;;18.60;99.90;;;;;;5069323;27;20360;-43
2023/10/08 03:14:52;;;;;;;10.55;5.65;;;18.50;99.90;;;;;;5118362;27;20101;-43
2023/10/08 03:17:23;;;;;;;11.73;6.10;;;18.50;99.90;;;;;;5071631;27;20032;-43
2023/10/08 03:19:49;;;;;;;14.07;7.07;;;18.50;99.90;;;;;;5115822;27;20517;-43
2023/10/08 03:22:18;;;;;;;11.40;6.82;;;18.50;99.90;;;;;;5084051;27;20357;-43
2023/10/08 03:24:48;;;;;;;16.33;7.70;;;18.40;99.90;;;;;;5105416;27;20516;-43
2023/10/08 03:27:20;;;;;;;13.50;7.72;;;18.40;99.90;;;;;;5092543;27;20067;-43
2023/10/08 03:29:46;;;;;;;14.43;7.75;;;18.50;99.90;;;;;;5097686;27;20176;-43
2023/10/08 03:32:16;;;;;;;15.20;8.27;;;18.50;99.90;;;;;;5101613;27;20113;-42
2023/10/08 03:34:49;;;;;;;15.57;7.88;;;18.50;99.90;;;;;;5088111;27;20051;-43
2023/10/08 03:37:20;;;;;;;12.95;7.28;;;18.60;99.90;;;;;;5106223;27;20123;-42
2023/10/08 03:42:39;;;;;;;12.38;6.47;;;18.50;99.90;;;;;;5046675;28;20044;-43
2023/10/08 03:45:11;;;;;;;10.13;5.90;;;18.50;99.90;;;;;;5082948;27;20119;-43
2023/10/08 03:47:46;;;;;;;11.20;5.50;;;18.50;99.90;;;;;;5134592;27;20025;-43
2023/10/08 03:50:17;;;;;;;8.98;4.80;;;18.50;99.90;;;;;;5152123;27;20118;-43
2023/10/08 03:52:44;;;;;;;9.23;4.43;;;18.40;99.90;;;;;;5130922;27;20019;-43
2023/10/08 03:58:17;;;;;;;10.75;5.00;;;18.40;99.90;;;;;;5134340;27;20026;-43
2023/10/08 04:00:45;;;;;;;9.70;4.50;;;18.40;99.90;;;;;;5142317;27;20081;-43
2023/10/08 04:03:11;;;;;;;9.23;4.88;;;18.20;99.90;;;;;;5132779;27;20065;-44
2023/10/08 04:05:59;;;;;;;10.07;4.97;;;18.20;99.90;;;;;;5153794;27;20437;-44
2023/10/08 04:08:39;;;;;;;8.82;4.03;;;18.10;99.90;;;;;;5135027;27;20041;-42
2023/10/08 04:13:53;;;;;;;8.60;3.97;;;18.10;99.90;;;;;;5148824;27;20041;-43
2023/10/08 04:16:20;;;;;;;6.88;3.92;;;18.20;99.90;;;;;;5138280;27;20036;-44
2023/10/08 04:18:50;;;;;;;5.55;3.67;;;18.20;99.90;;;;;;5134662;27;20060;-44
2023/10/08 04:21:20;;;;;;;6.90;4.22;;;18.20;99.90;;;;;;5147784;27;20026;-43
2023/10/08 04:23:46;;;;;;;7.43;4.07;;;18.20;99.90;;;;;;5127286;27;20726;-42
2023/10/08 04:26:12;;;;;;;7.47;3.95;;;18.20;99.90;;;;;;5157266;27;20018;-42
2023/10/08 04:28:38;;;;;;;7.47;4.13;;;18.20;99.90;;;;;;5113661;27;20018;-44
2023/10/08 04:31:28;;;;;;;6.97;4.07;;;18.30;99.90;;;;;;5160843;27;20730;-43
2023/10/08 04:33:50;;;;;;;6.85;4.00;;;18.30;99.90;;;;;;5104147;27;20114;-43
2023/10/08 04:36:19;;;;;;;7.97;4.15;;;18.30;99.90;;;;;;5160362;27;20935;-43
2023/10/08 04:38:48;;;;;;;19.88;6.63;;;18.30;99.90;;;;;;5109174;27;20032;-43
2023/10/08 04:41:18;;;;;;;13.20;5.60;;;18.30;99.90;;;;;;5121283;27;20060;-44
2023/10/08 04:43:44;;;;;;;9.82;4.43;;;18.30;99.90;;;;;;5121892;27;20029;-43
2023/10/08 04:48:55;;;;;;;11.93;4.15;;;18.10;99.90;;;;;;5123101;27;20088;-42
2023/10/08 04:51:23;;;;;;;13.48;4.63;;;18.00;99.90;;;;;;5063294;27;20044;-42
2023/10/08 04:53:49;;;;;;;11.05;3.72;;;17.80;99.90;;;;;;5101359;27;20492;-43
2023/10/08 04:56:18;;;;;;;6.28;3.47;;;17.70;99.90;;;;;;5167877;27;20018;-43
2023/10/08 04:58:47;;;;;;;7.72;3.40;;;17.70;99.90;;;;;;5101944;27;20081;-43
2023/10/08 05:01:17;;;;;;;7.05;3.47;;;17.60;99.90;;;;;;5167737;27;20392;-43
2023/10/08 05:09:22;;;;;;;8.40;3.55;;;17.50;99.90;;;;;;5100624;27;20063;-43
2023/10/08 05:12:11;;;;;;;6.50;2.65;;;17.40;99.90;;;;;;5168316;27;20501;-43
2023/10/08 05:14:45;;;;;;;8.43;3.28;;;17.40;99.90;;;;;;5105970;27;20695;-42
2023/10/08 05:25:11;;;;;;;6.72;2.80;;;17.20;99.90;;;;;;5102612;27;20043;-43
2023/10/08 05:27:56;;;;;;;6.40;2.95;;;17.10;99.90;;;;;;5166073;27;20026;-44
2023/10/08 05:30:53;;;;;;;8.50;3.15;;;17.10;99.90;;;;;;5119563;27;20024;-44
2023/10/08 05:35:49;;;;;;;5.72;2.33;;;17.10;99.90;;;;;;5099297;27;20061;-43
2023/10/08 05:38:23;;;;;;;6.50;2.55;;;17.00;99.90;;;;;;5159983;27;20006;-43
2023/10/08 05:43:48;;;;;;;6.57;3.25;;;16.80;99.90;;;;;;5068468;27;20066;-43
2023/10/08 05:59:39;;;;;;;6.50;3.05;;;16.50;99.90;;;;;;5144133;27;20036;-44
2023/10/08 06:08:11;;;;;;;6.55;3.08;;;16.40;99.90;;;;;;5143042;27;20063;-42
2023/10/08 06:15:48;;;;;;;4.47;2.10;;;16.30;99.90;;;;;;5123212;27;20035;-42
2023/10/08 06:18:18;;;;;;;5.20;2.35;;;16.30;99.90;;;;;;5153768;27;20556;-42
2023/10/08 06:20:48;;;;;;;5.72;2.50;;;16.30;99.90;;;;;;5123000;27;20131;-43
2023/10/08 06:23:18;;;;;;;5.57;2.70;;;16.20;99.90;;;;;;5145948;27;20022;-42
2023/10/08 06:25:50;;;;;;;6.22;3.50;;;16.20;99.90;;;;;;5130563;27;20021;-43
2023/10/08 06:28:20;;;;;;;5.97;3.30;;;16.20;99.90;;;;;;5143988;27;20102;-43
2023/10/08 06:30:52;;;;;;;8.40;3.85;;;16.20;99.90;;;;;;5137727;27;20017;-44
2023/10/08 06:33:20;;;;;;;8.07;3.22;;;16.10;99.90;;;;;;5133931;27;20105;-43
2023/10/08 06:36:01;;;;;;;7.18;3.55;;;16.10;99.90;;;;;;5145051;27;20024;-44
2023/10/08 06:38:29;;;;;;;7.90;2.83;;;16.10;99.90;;;;;;5133452;27;20022;-43
2023/10/08 06:40:55;;;;;;;5.45;2.80;;;16.00;99.90;;;;;;5125629;27;20088;-43
2023/10/08 06:43:24;;;;;;;7.82;2.97;;;16.00;99.90;;;;;;5140547;27;20473;-43
2023/10/08 06:45:53;;;;;;;5.28;2.60;;;15.90;99.90;;;;;;5155399;27;20026;-43
2023/10/08 06:48:23;;;;;;;6.07;2.60;;;15.90;99.90;;;;;;5112260;27;20019;-43
2023/10/08 06:50:50;;;;;;;6.80;2.60;;;16.00;99.90;;;;;;5159256;27;20029;-43
2023/10/08 06:53:18;;;;;;;4.57;2.17;;;16.00;99.90;;;;;;5106240;27;20105;-42
2023/10/08 06:55:48;;;;;;;4.32;2.67;;;16.00;99.90;;;;;;5158657;27;20105;-44
2023/10/08 06:58:14;;;;;;;3.72;2.33;;;16.00;99.90;;;;;;5106639;27;20029;-43
2023/10/08 07:00:46;;;;;;;6.50;3.55;;;15.90;99.90;;;;;;5164580;27;20524;-44
2023/10/08 07:03:15;;;;;;;4.45;2.92;;;15.90;99.90;;;;;;5103564;27;20381;-44
2023/10/08 07:06:02;;;;;;;5.75;3.13;;;15.90;99.90;;;;;;5166205;27;20040;-43
2023/10/08 07:08:32;;;;;;;2.78;2.10;;;15.90;99.90;;;;;;5106595;27;20483;-42
2023/10/08 07:11:11;;;;;;;4.90;3.03;;;16.00;99.90;;;;;;5165597;27;20046;-43
2023/10/08 07:13:39;;;;;;;5.18;3.30;;;16.00;99.90;;;;;;5115365;27;20024;-42
2023/10/08 07:16:08;;;;;;;5.50;3.20;;;16.00;99.90;;;;;;5060595;27;20336;-44
2023/10/08 07:18:38;;;;;;;3.80;2.63;;;16.00;99.90;;;;;;5125996;27;20054;-43
2023/10/08 07:21:12;;;;;;;8.23;3.30;;;16.10;99.90;;;;;;5059582;28;20040;-43
2023/10/08 07:23:55;;;;;;;4.72;3.53;;;16.10;99.90;;;;;;5127025;27;20018;-43
2023/10/08 07:26:25;;;;;;;4.18;3.03;;;16.10;99.90;;;;;;5060073;28;20033;-44
2023/10/08 07:28:52;;;;;;;4.88;3.35;;;16.10;99.90;;;;;;5126207;27;20028;-45
2023/10/08 07:31:21;;;;;;;4.50;3.28;;;16.10;99.90;;;;;;5062039;27;20590;-44
2023/10/08 07:33:56;;;;;;;4.38;3.20;;;16.10;99.90;;;;;;5130265;27;20050;-44
2023/10/08 07:36:26;;;;;;;3.90;3.25;;;16.10;99.90;;;;;;5062834;27;20029;-42
2023/10/08 07:38:52;;;;;;;3.30;3.00;;;16.20;99.90;;;;;;5130750;27;20022;-44
2023/10/08 07:41:20;;;;;;;3.28;2.88;;;16.20;99.90;;;;;;5109738;27;20034;-43
2023/10/08 07:43:58;;;;;;;3.55;3.08;;;16.20;99.90;;;;;;5114026;27;20079;-43
2023/10/08 07:46:28;;;;;;;2.95;2.72;;;16.20;99.90;;;;;;5168089;27;20467;-42
2023/10/08 07:48:59;;;;;;;4.07;3.58;;;16.30;99.90;;;;;;5115470;27;20086;-43
2023/10/08 07:51:25;;;;;;;4.05;3.72;;;16.30;99.90;;;;;;5161745;27;20043;-45
2023/10/08 07:53:55;;;;;;;3.55;3.25;;;16.30;99.90;;;;;;5126361;27;20028;-43
2023/10/08 07:56:22;;;;;;;3.97;3.67;;;16.20;99.90;;;;;;5149453;27;20418;-42
2023/10/08 07:58:48;;;;;;;4.22;3.83;;;16.20;99.90;;;;;;5135198;27;20025;-42
2023/10/08 08:01:14;;;;;;;5.35;3.72;;;16.30;99.90;;;;;;5137127;27;20035;-44
2023/10/08 08:03:41;;;;;;;3.20;2.90;;;16.30;99.90;;;;;;5147947;27;20114;-43
2023/10/08 08:06:09;;;;;;;2.95;2.60;;;16.40;99.90;;;;;;5124385;27;20100;-43
2023/10/08 08:08:36;;;;;;;3.67;3.38;;;16.40;99.90;;;;;;5159309;27;20199;-42
2023/10/08 08:11:12;;;;;;;3.92;3.53;;;16.50;99.90;;;;;;5112238;27;20059;-43
2023/10/08 08:13:42;;;;;;;3.65;3.35;;;16.50;99.90;;;;;;5161767;27;20525;-43
2023/10/08 08:16:29;;;;;;;5.35;4.60;;;16.50;99.90;;;;;;5098487;27;20022;-43
2023/10/08 08:19:15;;;;;;;4.45;4.05;;;16.50;99.90;;;;;;5160247;27;20430;-42
2023/10/08 08:21:45;;;;;;;4.25;3.90;;;16.50;99.90;;;;;;5127039;27;20034;-43
2023/10/08 08:24:28;;;;;;;5.13;4.65;;;16.50;99.90;;;;;;5154477;27;20026;-43
2023/10/08 08:27:01;;;;;;;5.68;5.18;;;16.50;99.90;;;;;;5128787;27;20023;-42
2023/10/08 08:29:29;;;;;;;7.13;5.00;;;16.50;99.90;;;;;;5151212;27;20831;-43
2023/10/08 08:31:56;;;;;;;5.68;5.18;;;16.50;99.90;;;;;;5121207;27;20098;-43
2023/10/08 08:34:23;;;;;;;5.30;4.80;;;16.50;99.90;;;;;;5161351;27;20042;-42
2023/10/08 08:36:49;;;;;;;5.38;4.88;;;16.40;99.90;;;;;;5098977;27;20018;-41
2023/10/08 08:39:32;;;;;;;5.63;5.13;;;16.30;99.90;;;;;;5160619;27;20028;-42
2023/10/08 08:42:04;;;;;;;4.50;4.10;;;16.40;99.90;;;;;;5135262;27;20033;-42
2023/10/08 08:44:32;;;;;;;5.00;4.50;;;16.30;99.90;;;;;;5161748;27;20021;-43
2023/10/08 08:47:04;;;;;;;4.78;4.30;;;16.40;99.90;;;;;;5108921;27;20022;-43
2023/10/08 08:49:37;;;;;;;4.82;4.20;;;16.40;99.90;;;;;;5161516;27;20030;-43
2023/10/08 08:52:05;;;;;;;4.38;3.90;;;16.40;99.90;;;;;;5108454;27;20029;-43
2023/10/08 08:54:32;;;;;;;4.75;4.28;;;16.40;99.90;;;;;;5166189;27;20029;-43
2023/10/08 08:57:04;;;;;;;4.22;3.83;;;16.40;99.90;;;;;;5105702;27;20027;-42
2023/10/08 08:59:30;;;;;;;5.60;4.55;;;16.40;99.90;;;;;;5167586;27;20053;-43
2023/10/08 09:02:00;;;;;;;5.18;4.50;;;16.40;99.90;;;;;;5101031;27;20119;-45
2023/10/08 09:04:30;;;;;;;3.97;3.40;;;16.40;99.90;;;;;;5168871;27;20090;-43
2023/10/08 09:06:56;;;;;;;3.92;3.28;;;16.40;99.90;;;;;;5100784;27;20377;-43
2023/10/08 09:09:31;;;;;;;4.70;3.72;;;16.40;99.90;;;;;;5167779;27;20026;-43
2023/10/08 09:11:57;;;;;;;4.35;3.80;;;16.40;99.90;;;;;;5087535;27;20353;-43
2023/10/08 09:14:25;;;;;;;4.03;3.22;;;16.50;99.90;;;;;;5041752;28;20078;-43
2023/10/08 09:16:57;;;;;;;3.60;2.80;;;16.50;99.90;;;;;;5110936;27;20141;-43
2023/10/08 09:19:24;;;;;;;3.58;3.00;;;16.50;99.90;;;;;;5069364;27;20813;-43
2023/10/08 09:22:07;;;;;;;4.35;3.25;;;16.60;99.90;;;;;;5108165;27;20030;-43
2023/10/08 09:24:36;;;;;;;4.55;2.50;;;16.60;99.90;;;;;;5069555;27;20025;-43
2023/10/08 09:27:03;;;;;;;4.45;2.90;;;16.70;99.90;;;;;;5108413;27;20034;-43
2023/10/08 09:29:32;;;;;;;4.93;2.40;;;16.80;99.90;;;;;;5080862;27;20024;-43
2023/10/08 09:31:58;;;;;;;2.60;2.20;;;16.80;99.90;;;;;;5098017;27;20094;-43
2023/10/08 09:34:30;;;;;;;4.10;2.30;;;16.80;99.90;;;;;;5089609;27;20116;-43
2023/10/08 09:36:57;;;;;;;2.70;1.95;;;16.90;99.90;;;;;;5089344;27;20402;-43
2023/10/08 09:39:23;;;;;;;2.53;2.05;;;16.90;99.90;;;;;;5099189;27;20025;-42
2023/10/08 09:41:59;;;;;;;4.45;2.00;;;16.80;99.90;;;;;;5107250;27;20521;-43
2023/10/08 09:44:25;;;;;;;2.45;1.73;;;16.80;99.90;;;;;;5123499;27;20464;-42
2023/10/08 09:47:04;;;;;;;2.40;1.50;;;16.90;99.90;;;;;;5158413;27;20437;-44
2023/10/08 09:49:43;;;;;;;2.80;1.70;;;16.90;99.90;;;;;;5119329;27;20018;-43
2023/10/08 09:52:10;;;;;;;2.40;1.50;;;17.00;99.90;;;;;;5152353;27;20026;-43
2023/10/08 09:55:02;;;;;;;2.50;1.30;;;17.10;99.90;;;;;;5115665;27;20418;-43
2023/10/08 09:57:27;;;;;;;2.80;1.50;;;17.10;99.90;;;;;;5146517;27;20030;-41
2023/10/08 09:59:53;;;;;;;2.88;1.30;;;17.20;99.90;;;;;;5121535;27;20044;-42
2023/10/08 10:02:22;;;;;;;2.22;1.38;;;17.20;99.90;;;;;;5158077;27;20041;-43
2023/10/08 10:04:52;;;;;;;2.00;1.30;;;17.10;99.90;;;;;;5099427;27;20037;-42
2023/10/08 10:07:19;;;;;;;2.50;1.25;;;17.20;99.90;;;;;;5159289;27;20032;-42
2023/10/08 10:09:46;;;;;;;2.97;1.10;;;17.20;99.90;;;;;;5107491;27;20022;-43
2023/10/08 10:12:17;;;;;;;1.95;1.30;;;17.30;99.90;;;;;;5160281;27;20118;-43
2023/10/08 10:14:46;;;;;;;1.95;1.20;;;17.40;99.90;;;;;;5117346;27;20017;-43
2023/10/08 10:17:20;;;;;;;1.92;1.20;;;17.40;99.90;;;;;;5060640;27;20024;-43
2023/10/08 10:19:51;;;;;;;1.50;1.10;;;17.50;99.90;;;;;;5105572;27;20514;-43
2023/10/08 10:22:29;;;;;;;3.15;1.60;;;17.50;99.90;;;;;;5166654;27;20034;-43
2023/10/08 10:24:54;;;;;;;1.35;0.90;;;17.60;99.90;;;;;;5102689;27;20038;-44
2023/10/08 10:27:21;;;;;;;2.83;1.40;;;17.60;99.90;;;;;;5166342;27;20041;-42
2023/10/08 10:29:48;;;;;;;1.90;1.70;;;17.60;99.90;;;;;;5100231;27;20041;-43
2023/10/08 10:32:20;;;;;;;5.60;1.67;;;17.70;99.90;;;;;;5166206;27;20376;-43
2023/10/08 10:34:51;;;;;;;2.33;1.50;;;17.70;99.90;;;;;;5100068;27;20055;-43
2023/10/08 10:37:19;;;;;;;1.30;1.20;;;17.70;99.90;;;;;;5165427;27;20023;-43
2023/10/08 10:40:00;;;;;;;2.33;1.48;;;17.70;99.90;;;;;;5105663;27;20542;-43
2023/10/08 10:42:28;;;;;;;0.90;0.90;;;17.70;99.90;;;;;;5141789;27;20022;-43
2023/10/08 10:44:58;;;;;;;2.20;1.40;;;17.80;99.90;;;;;;5106831;27;20123;-43
2023/10/08 10:47:46;;;;;;;2.35;1.40;;;17.80;99.90;;;;;;5162629;27;20018;-43
2023/10/08 10:50:33;;;;;;;1.60;1.23;;;17.90;99.90;;;;;;5101418;27;20021;-42
2023/10/08 10:52:58;;;;;;;2.03;1.00;;;17.90;99.90;;;;;;5040114;28;20206;-43
2023/10/08 10:55:31;;;;;;;2.20;1.27;;;18.00;99.90;;;;;;5122748;27;20421;-44
2023/10/08 10:58:11;;;;;;;3.03;1.33;;;18.10;99.90;;;;;;5041238;28;20113;-44
2023/10/08 11:03:09;;;;;;;2.42;1.40;;;18.20;99.90;;;;;;5060006;28;20429;-43
2023/10/08 11:05:39;;;;;;;;;;;18.20;99.90;;;;;;5120625;27;20027;-43
2023/10/08 11:08:08;;;;;;;2.45;1.10;;;18.20;99.90;;;;;;5067963;27;20430;-43
2023/10/08 11:10:38;;;;;;;1.63;1.20;;;18.20;99.90;;;;;;5114892;27;20034;-42
2023/10/08 11:13:14;;;;;;;2.40;1.20;;;18.30;99.90;;;;;;5075722;27;20028;-43
2023/10/08 11:15:48;;;;;;;3.45;1.38;;;18.30;99.90;;;;;;5111234;27;20445;-44
2023/10/08 11:18:15;;;;;;;2.28;1.40;;;18.30;99.90;;;;;;5075927;27;20027;-43
2023/10/08 11:20:44;;;;;;;2.78;1.40;;;18.20;99.90;;;;;;5103381;27;20082;-44
2023/10/08 11:23:19;;;;;;;3.05;1.65;;;18.20;99.90;;;;;;5087393;27;20024;-43
2023/10/08 11:26:02;;;;;;;1.77;1.25;;;18.20;99.90;;;;;;5099674;27;20033;-42
2023/10/08 11:28:28;;;;;;;;;;;18.20;99.90;;;;;;5081698;27;20040;-42
2023/10/08 11:30:54;;;;;;;1.38;0.80;;;18.30;99.90;;;;;;5098559;27;19906;-44
2023/10/08 11:33:20;;;;;;;2.63;1.10;;;18.30;99.90;;;;;;5094211;27;20518;-43
2023/10/08 11:35:58;;;;;;;1.75;1.00;;;18.40;99.90;;;;;;5087278;27;20044;-43
2023/10/08 11:38:24;;;;;;;1.77;1.30;;;18.40;99.90;;;;;;5099193;27;20063;-43
2023/10/08 11:40:56;;;;;;;3.05;1.30;;;18.40;99.90;;;;;;5081005;27;20040;-43
2023/10/08 11:43:22;;;;;;;1.70;1.20;;;18.40;99.90;;;;;;5106992;27;20020;-44
2023/10/08 11:45:48;;;;;;;2.08;1.15;;;18.40;99.90;;;;;;5071930;27;20131;-43
2023/10/08 11:48:17;;;;;;;2.08;1.33;;;18.40;99.90;;;;;;5120867;27;20020;-43
2023/10/08 11:50:43;;;;;;;1.63;1.02;;;18.50;99.90;;;;;;5070813;27;20103;-43
2023/10/08 11:53:11;;;;;;;1.83;1.10;;;18.50;99.90;;;;;;5122143;27;20028;-42
2023/10/08 11:55:38;;;;;;;1.20;1.10;;;18.50;99.90;;;;;;5066763;27;20361;-43
2023/10/08 11:58:10;;;;;;;2.03;1.40;;;18.50;99.90;;;;;;5123490;27;20713;-43
2023/10/08 12:00:44;;;;;;;2.13;1.20;;;18.50;99.90;;;;;;5063310;28;20033;-43
2023/10/08 12:03:17;;;;;;;3.15;1.23;;;18.40;99.90;;;;;;5103127;27;20018;-43
2023/10/08 12:05:50;;;;;;;1.58;1.17;;;18.30;99.90;;;;;;5169328;27;20022;-42
2023/10/08 12:08:18;;;;;;;2.03;1.20;;;18.20;99.90;;;;;;5103217;27;20022;-43
2023/10/08 12:10:48;;;;;;;2.40;1.42;;;18.10;99.90;;;;;;5169381;27;20119;-43
2023/10/08 12:13:16;;;;;;;2.47;1.25;;;18.10;99.90;;;;;;5102267;27;20025;-44
2023/10/08 12:15:44;;;;;;;1.63;1.13;;;18.10;99.90;;;;;;5169037;27;20069;-43
2023/10/08 12:18:24;;;;;;;1.70;1.00;;;18.10;99.90;;;;;;5101808;27;20555;-42
2023/10/08 12:20:50;;;;;;;1.48;1.10;;;18.10;99.90;;;;;;5043576;27;20036;-43
2023/10/08 12:23:25;;;;;;;2.25;1.27;;;18.20;99.90;;;;;;5120779;27;20047;-43
2023/10/08 12:26:03;;;;;;;1.00;0.90;;;18.20;99.90;;;;;;5043397;28;20146;-42
2023/10/08 12:28:28;;;;;;;1.27;1.15;;;18.30;99.90;;;;;;5123210;27;20078;-42
2023/10/08 12:30:55;;;;;;;1.35;1.00;;;18.20;99.90;;;;;;5064322;27;20667;-43
2023/10/08 12:33:24;;;;;;;1.88;1.30;;;18.20;99.90;;;;;;5113611;27;20491;-43
2023/10/08 12:35:53;;;;;;;2.88;1.30;;;18.20;99.90;;;;;;5076061;27;20029;-43
2023/10/08 12:38:31;;;;;;;1.40;1.00;;;18.20;99.90;;;;;;5103365;27;20053;-43
2023/10/08 12:41:08;;;;;;;1.60;1.30;;;18.20;99.90;;;;;;5089233;27;20115;-43
2023/10/08 12:43:38;;;;;;;1.20;1.10;;;18.30;99.90;;;;;;5123635;27;20072;-44
2023/10/08 12:46:04;;;;;;;1.45;1.17;;;18.30;99.90;;;;;;5149748;27;20032;-44
2023/10/08 12:48:30;;;;;;;1.05;1.00;;;18.30;99.90;;;;;;5134107;27;20057;-44
2023/10/08 12:51:00;;;;;;;1.92;1.48;;;18.30;99.90;;;;;;5136695;27;20050;-43
2023/10/08 12:53:34;;;;;;;1.48;1.38;;;18.40;99.90;;;;;;5143747;27;20024;-44
2023/10/08 12:56:05;;;;;;;2.55;1.27;;;18.30;99.90;;;;;;5132320;27;20095;-44
2023/10/08 12:58:38;;;;;;;1.27;1.17;;;18.40;99.90;;;;;;5146940;27;20476;-42
2023/10/08 13:01:03;;;;;;;1.90;1.65;;;18.40;99.90;;;;;;5120229;27;20038;-42
2023/10/08 13:03:32;;;;;;;2.63;1.27;;;18.50;99.90;;;;;;5060456;27;20379;-44
2023/10/08 13:06:05;;;;;;;1.30;1.20;;;18.50;99.90;;;;;;5113102;27;20061;-43
2023/10/08 13:08:33;;;;;;;1.20;1.10;;;18.50;99.90;;;;;;5069148;27;20379;-43
2023/10/08 13:11:00;;;;;;;1.35;1.02;;;18.50;99.90;;;;;;5097771;27;20109;-43
2023/10/08 13:13:26;;;;;;;1.52;1.10;;;18.50;99.90;;;;;;5160043;27;20030;-43
2023/10/08 13:15:55;;;;;;;1.13;1.05;;;18.50;99.90;;;;;;5128676;27;20068;-43
2023/10/08 13:18:27;;;;;;;1.63;1.15;;;18.50;99.90;;;;;;5064105;27;20158;-44
2023/10/08 13:20:57;;;;;;;2.38;0.88;;;18.50;99.90;;;;;;5117604;27;20028;-44
2023/10/08 13:23:23;;;;;;;1.60;1.20;;;18.50;99.90;;;;;;5061815;28;20547;-43
2023/10/08 13:26:03;;;;;;;1.35;1.00;;;18.50;99.90;;;;;;5128130;27;20029;-44
2023/10/08 13:28:29;;;;;;;0.95;0.93;;;18.40;99.90;;;;;;5062119;28;20028;-43
2023/10/08 13:30:55;;;;;;;1.00;0.90;;;18.40;99.90;;;;;;5128343;27;20026;-42
2023/10/08 13:33:23;;;;;;;2.20;1.27;;;18.40;99.90;;;;;;5060860;28;20544;-43
2023/10/08 13:35:50;;;;;;;1.33;1.20;;;18.30;99.90;;;;;;5128227;27;20541;-43
2023/10/08 13:38:19;;;;;;;1.27;1.17;;;18.30;99.90;;;;;;5061272;28;20024;-43
2023/10/08 13:41:03;;;;;;;1.45;1.10;;;18.30;99.90;;;;;;5084662;27;20132;-44
2023/10/08 13:43:39;;;;;;;1.23;1.02;;;18.30;99.90;;;;;;5042334;28;20021;-45
2023/10/08 13:46:08;;;;;;;1.52;1.20;;;18.40;99.90;;;;;;5120905;27;20026;-43
2023/10/08 13:48:35;;;;;;;1.45;1.35;;;18.40;99.90;;;;;;5040787;28;20017;-43
2023/10/08 13:51:03;;;;;;;2.40;2.08;;;18.50;99.90;;;;;;5108938;27;20453;-44
2023/10/08 13:53:30;;;;;;;1.92;1.42;;;18.50;99.90;;;;;;5072271;27;20024;-43
2023/10/08 13:56:04;;;;;;;2.00;1.80;;;18.60;99.90;;;;;;5102636;27;20101;-44
2023/10/08 13:58:30;;;;;;;1.80;1.48;;;18.60;99.90;;;;;;5079873;27;20108;-44
2023/10/08 14:01:00;;;;;;;1.50;1.40;;;18.60;99.90;;;;;;5096395;27;20026;-44
2023/10/08 14:03:32;;;;;;;2.78;1.90;;;18.60;99.90;;;;;;5089263;27;20472;-45
2023/10/08 14:06:03;;;;;;;2.00;1.80;;;18.60;99.90;;;;;;5089748;27;20453;-43
2023/10/08 14:08:30;;;;;;;2.20;1.58;;;18.50;99.90;;;;;;5094575;27;20448;-45
2023/10/08 14:11:02;;;;;;;2.30;1.60;;;18.50;99.90;;;;;;5081905;27;20634;-44
2023/10/08 14:13:31;;;;;;;1.65;1.50;;;18.40;99.90;;;;;;5102916;27;20465;-44
2023/10/08 14:15:57;;;;;;;1.85;1.50;;;18.50;99.90;;;;;;5073807;27;20134;-43